createdAt,value
2022-09-04T00:03:03.506Z,11.1
2022-09-04T00:08:01.586Z,10.9
2022-09-04T00:12:59.509Z,10.9
2022-09-04T00:17:57.427Z,10.6
2022-09-04T00:22:55.305Z,10.5
2022-09-04T00:27:53.265Z,10.5
2022-09-04T00:32:51.205Z,10.5
2022-09-04T00:37:49.078Z,10.6
2022-09-04T00:42:47.100Z,10.6
2022-09-04T00:47:45.196Z,10.6
2022-09-04T00:52:43.187Z,10.7
2022-09-04T00:57:41.150Z,10.7
2022-09-04T01:02:39.246Z,10.7
2022-09-04T01:07:37.155Z,10.6
2022-09-04T01:12:35.346Z,10.7
2022-09-04T01:17:33.446Z,10.7
2022-09-04T01:22:31.172Z,10.6
2022-09-04T01:27:29.182Z,10.5
2022-09-04T01:32:27.320Z,10.6
2022-09-04T01:37:25.437Z,10.6
2022-09-04T01:47:21.973Z,10.6
2022-09-04T01:52:19.985Z,10.5
2022-09-04T01:57:17.908Z,10.5
2022-09-04T02:02:15.970Z,10.5
2022-09-04T02:07:13.988Z,10.4
2022-09-04T02:12:11.878Z,10.3
2022-09-04T02:17:09.660Z,10.3
2022-09-04T02:22:07.560Z,10.4
2022-09-04T02:27:05.782Z,10.3
2022-09-04T02:32:04.011Z,10.2
2022-09-04T02:37:02.016Z,10.2
2022-09-04T02:42:00.032Z,9.9
2022-09-04T02:46:58.244Z,9.9
2022-09-04T02:51:56.600Z,9.7
2022-09-04T02:56:54.816Z,9.6
2022-09-04T03:01:52.964Z,9.5
2022-09-04T03:06:50.953Z,9.4
2022-09-04T03:11:49.175Z,9.5
2022-09-04T03:16:47.118Z,9.6
2022-09-04T03:21:45.139Z,9.5
2022-09-04T03:26:43.268Z,9.6
2022-09-04T03:31:41.383Z,9.6
2022-09-04T03:36:39.294Z,9.7
2022-09-04T03:41:37.187Z,9.7
2022-09-04T03:46:35.129Z,9.6
2022-09-04T03:51:32.965Z,9.6
2022-09-04T03:56:30.838Z,9.7
2022-09-04T04:01:28.893Z,9.7
2022-09-04T04:06:27.033Z,9.9
2022-09-04T04:11:25.306Z,10.1
2022-09-04T04:16:23.663Z,10.7
2022-09-04T04:21:22.542Z,11.8
2022-09-04T04:26:21.457Z,12.4
2022-09-04T04:31:19.929Z,12.7
2022-09-04T04:36:17.887Z,12.3
2022-09-04T04:41:15.598Z,11.8
2022-09-04T04:46:13.588Z,12
2022-09-04T04:51:12.507Z,13.2
2022-09-04T04:56:11.554Z,14.6
2022-09-04T05:01:10.461Z,15.7
2022-09-04T05:06:09.161Z,16.2
2022-09-04T05:11:07.770Z,16.7
2022-09-04T05:16:09.176Z,17.8
2022-09-04T05:21:05.443Z,18.5
2022-09-04T05:26:03.942Z,18.8
2022-09-04T05:31:01.949Z,19.4
2022-09-04T05:36:01.065Z,20.5
2022-09-04T05:40:59.926Z,21.7
2022-09-04T05:45:58.647Z,22.5
2022-09-04T05:50:57.092Z,22.8
2022-09-04T05:55:57.517Z,22.1
2022-09-04T06:00:55.300Z,22.7
2022-09-04T06:05:55.411Z,24
2022-09-04T06:10:54.348Z,24.8
2022-09-04T06:15:52.282Z,24.8
2022-09-04T06:20:50.868Z,25.6
2022-09-04T06:25:48.595Z,25.4
2022-09-04T06:30:47.255Z,26.4
2022-09-04T06:35:45.761Z,26.8
2022-09-04T06:40:44.312Z,28.1
2022-09-04T06:45:42.285Z,28.1
2022-09-04T06:50:40.611Z,28.6
2022-09-04T06:55:40.102Z,30.2
2022-09-04T07:00:39.164Z,31.1
2022-09-04T07:05:36.834Z,30
2022-09-04T07:10:34.738Z,29.9
2022-09-04T07:15:33.868Z,31.6
2022-09-04T07:20:32.075Z,31
2022-09-04T07:25:30.158Z,31.5
2022-09-04T07:30:28.791Z,32.3
2022-09-04T07:35:27.014Z,31.9
2022-09-04T07:40:27.874Z,31.7
2022-09-04T07:45:23.438Z,32.8
2022-09-04T07:50:21.611Z,32.8
2022-09-04T07:55:20.171Z,33.7
2022-09-04T08:00:18.548Z,33.4
2022-09-04T08:05:16.942Z,33.9
2022-09-04T08:10:15.583Z,35
2022-09-04T08:15:13.415Z,34.2
2022-09-04T08:20:12.300Z,34.7
2022-09-04T08:25:09.145Z,34.5
2022-09-04T08:30:06.958Z,34.8
2022-09-04T08:35:04.805Z,34.8
2022-09-04T08:40:02.493Z,34.8
2022-09-04T08:45:01.154Z,35.9
2022-09-04T08:49:59.745Z,36.3
2022-09-04T08:54:57.923Z,36.5
2022-09-04T08:59:55.969Z,36.7
2022-09-04T09:04:53.487Z,36.6
2022-09-04T09:09:52.055Z,38.8
2022-09-04T09:14:50.774Z,38
2022-09-04T09:19:49.073Z,36.5
2022-09-04T09:24:46.576Z,37.2
2022-09-04T09:29:44.562Z,35.9
2022-09-04T09:34:42.910Z,35.9
2022-09-04T09:39:40.358Z,36.1
2022-09-04T09:44:38.710Z,35.8
2022-09-04T09:49:34.572Z,34.5
2022-09-04T09:54:34.277Z,36.1
2022-09-04T09:59:33.256Z,36.5
2022-09-04T10:04:30.713Z,35.5
2022-09-04T10:09:27.145Z,34.5
2022-09-04T10:14:25.296Z,32.6
2022-09-04T10:19:22.700Z,32.7
2022-09-04T10:24:20.367Z,33.5
2022-09-04T10:29:17.774Z,32.8
2022-09-04T10:34:17.305Z,35.5
2022-09-04T10:39:14.828Z,34.8
2022-09-04T10:44:14.560Z,36
2022-09-04T10:49:11.548Z,35.2
2022-09-04T10:54:08.768Z,34.2
2022-09-04T10:59:08.181Z,36.5
2022-09-04T11:04:08.505Z,39
2022-09-04T11:09:04.490Z,34.1
2022-09-04T11:13:58.731Z,30.5
2022-09-04T11:18:55.396Z,29.2
2022-09-04T11:23:52.693Z,28.9
2022-09-04T11:28:50.525Z,28.5
2022-09-04T11:33:48.490Z,28.2
2022-09-04T11:38:46.414Z,28.3
2022-09-04T11:43:44.200Z,27.8
2022-09-04T11:48:42.152Z,27.5
2022-09-04T11:53:40.098Z,27.5
2022-09-04T11:58:38.599Z,27.8
2022-09-04T12:03:37.431Z,28.1
2022-09-04T12:08:36.084Z,28.5
2022-09-04T12:13:36.083Z,31.3
2022-09-04T12:18:38.179Z,33.6
2022-09-04T12:23:35.986Z,31.9
2022-09-04T12:28:32.285Z,29.3
2022-09-04T12:33:30.110Z,30.4
2022-09-04T12:38:28.462Z,29.1
2022-09-04T12:43:26.293Z,29.3
2022-09-04T12:48:24.823Z,29.2
2022-09-04T12:53:26.320Z,30.5
2022-09-04T12:58:24.250Z,29.5
2022-09-04T13:03:21.072Z,27.6
2022-09-04T13:08:18.452Z,26.9
2022-09-04T13:13:15.513Z,25.6
2022-09-04T13:18:12.123Z,24.3
2022-09-04T13:23:10.965Z,24.2
2022-09-04T13:28:07.898Z,24.2
2022-09-04T13:33:06.149Z,24
2022-09-04T13:38:04.472Z,24.4
2022-09-04T13:43:02.937Z,25
2022-09-04T13:48:00.716Z,24.2
2022-09-04T13:52:58.650Z,24.7
2022-09-04T13:57:57.586Z,25.6
2022-09-04T14:02:56.516Z,25.8
2022-09-04T14:07:54.134Z,25.1
2022-09-04T14:12:52.266Z,24.6
2022-09-04T14:17:49.720Z,24.3
2022-09-04T14:22:47.550Z,23.9
2022-09-04T14:27:45.684Z,23.7
2022-09-04T14:32:43.460Z,23.5
2022-09-04T14:37:41.666Z,23.7
2022-09-04T14:42:39.955Z,23.8
2022-09-04T14:47:38.068Z,23.9
2022-09-04T14:52:39.636Z,23.6
2022-09-04T14:57:33.934Z,23.4
2022-09-04T15:02:32.018Z,23.4
2022-09-04T15:07:29.992Z,23.1
2022-09-04T15:12:27.646Z,22.5
2022-09-04T15:17:25.590Z,22
2022-09-04T15:22:23.346Z,21.6
2022-09-04T15:27:20.916Z,21.1
2022-09-04T15:32:18.674Z,20.8
2022-09-04T15:37:16.505Z,20.5
2022-09-04T15:42:14.493Z,20.3
2022-09-04T15:47:12.623Z,20.1
2022-09-04T15:52:10.923Z,20
2022-09-04T15:57:09.197Z,19.5
2022-09-04T16:02:06.950Z,19
2022-09-04T16:07:04.725Z,18.5
2022-09-04T16:12:02.446Z,18.3
2022-09-04T16:17:00.442Z,18
2022-09-04T16:21:58.292Z,17.9
2022-09-04T16:26:56.175Z,17.7
2022-09-04T16:31:54.306Z,17.6
2022-09-04T16:36:52.428Z,17.5
2022-09-04T16:41:50.399Z,17.1
2022-09-04T16:46:48.657Z,17
2022-09-04T16:51:46.981Z,16.8
2022-09-04T16:56:45.025Z,16.6
2022-09-04T17:01:43.260Z,16.5
2022-09-04T17:06:41.194Z,16.3
2022-09-04T17:11:39.189Z,16.1
2022-09-04T17:16:37.087Z,16
2022-09-04T17:21:34.968Z,16
2022-09-04T17:29:05.370Z,16
2022-09-04T17:31:31.156Z,16.1
2022-09-04T17:39:47.782Z,16.2
2022-09-04T17:41:35.224Z,16.3
2022-09-04T17:46:25.439Z,16.3
2022-09-04T17:51:23.678Z,16.4
2022-09-04T17:56:21.742Z,16.4
2022-09-04T18:01:19.818Z,16.3
2022-09-04T18:06:17.491Z,16.2
2022-09-04T18:11:15.401Z,16
2022-09-04T18:16:13.567Z,15.8
2022-09-04T18:21:11.610Z,15.7
2022-09-04T18:26:09.653Z,15.8
2022-09-04T18:33:35.837Z,15.8
2022-09-04T18:37:13.982Z,15.9
2022-09-04T18:41:39.282Z,15.8
2022-09-04T18:50:26.248Z,15.7
2022-09-04T18:55:59.471Z,15.7
2022-09-04T19:00:57.567Z,15.8
2022-09-04T19:05:55.793Z,15.8
2022-09-04T19:10:54.091Z,15.8
2022-09-04T19:15:52.148Z,15.8
2022-09-04T19:20:50.234Z,15.8
2022-09-04T19:25:50.255Z,15.5
2022-09-04T19:30:46.119Z,15.7
2022-09-04T19:35:44.305Z,15.7
2022-09-04T19:45:22.085Z,15.7
2022-09-04T19:46:10.302Z,15.7
2022-09-04T19:52:20.959Z,15.6
2022-09-04T19:55:36.582Z,15.5
2022-09-04T20:00:43.302Z,15.6
2022-09-04T20:05:33.034Z,15.4
2022-09-04T20:10:31.162Z,15.3
2022-09-04T20:15:31.506Z,15.4
2022-09-04T20:20:27.429Z,15.3
2022-09-04T20:25:25.453Z,15.3
2022-09-04T20:30:23.485Z,15.2
2022-09-04T20:35:32.822Z,15.1
2022-09-04T20:40:19.612Z,15.1
2022-09-04T20:46:38.337Z,15.1
2022-09-04T20:53:00.839Z,15
2022-09-04T20:55:13.915Z,15
2022-09-04T21:00:34.817Z,15.1
2022-09-04T21:05:13.619Z,15.1
2022-09-04T21:10:10.862Z,15.1
2022-09-04T21:15:08.945Z,15
2022-09-04T21:20:06.988Z,15
2022-09-04T21:25:05.200Z,15
2022-09-04T21:30:03.360Z,15
2022-09-04T21:35:01.382Z,15
2022-09-04T21:39:59.530Z,15
2022-09-04T21:44:57.652Z,15
2022-09-04T21:49:55.774Z,15.1
2022-09-04T21:55:26.692Z,15.1
2022-09-04T22:02:34.743Z,15.1
2022-09-04T22:04:54.398Z,15.1
2022-09-04T22:12:05.055Z,15
2022-09-04T22:14:49.170Z,14.9
2022-09-04T22:19:47.204Z,14.9
2022-09-04T22:24:45.292Z,14.9
2022-09-04T22:29:43.302Z,14.8
2022-09-04T22:34:41.385Z,14.8
2022-09-04T22:39:39.535Z,14.9
2022-09-04T22:44:37.423Z,14.9
2022-09-04T22:49:35.650Z,14.9
2022-09-04T22:54:33.625Z,14.9
2022-09-04T22:59:31.503Z,14.8
2022-09-04T23:04:29.629Z,14.9
2022-09-04T23:12:30.337Z,14.9
2022-09-04T23:14:26.245Z,15
2022-09-04T23:20:42.460Z,15
2022-09-04T23:26:40.645Z,15
2022-09-04T23:29:20.751Z,15
2022-09-04T23:34:18.325Z,15
2022-09-04T23:39:16.860Z,15
2022-09-04T23:44:14.232Z,15
2022-09-04T23:49:12.268Z,15.1
2022-09-04T23:54:24.591Z,14.9
2022-09-04T23:59:08.327Z,14.9
